Reklama

Seznam meteostanic a jejich METAR

Vyhledat místa podle abecedy:
A B C D E F G H I J K L M N O P Q R S T U V W X Y Z

Filtrovat:

ID stanice:
a/nebo
Název místa (fulltext):
 
Místo (ID)Naposledy načteno 
Vagar (EKVG) 31.05.2020 02:50 UTC Zobrazit METAR
EKVG 310250Z AUTO 13009KT 100V170 9999 FEW065/// 10/08 Q1024
Valencia (LEVC) 31.05.2020 04:00 UTC Zobrazit METAR
LEVC 310400Z 30004KT 9999 FEW040 16/11 Q1013 NOSIG
Varna (LBWN) 31.05.2020 03:00 UTC Zobrazit METAR
LBWN 310300Z 31004KT 5000 BR NSC 10/10 Q1012 TEMPO 3000 BR
Verona (LIPX) 31.05.2020 03:50 UTC Zobrazit METAR
LIPX 310350Z AUTO 34003KT 9999 OVC069/// 14/10 Q1016
Vienna (LOWW) 31.05.2020 03:50 UTC Zobrazit METAR
LOWW 310350Z 30013KT CAVOK 12/05 Q1016 NOSIG
Vientiane (VLVT) 31.05.2020 04:00 UTC Zobrazit METAR
VLVT 310400Z 00000KT 8000 SCT016 BKN040 OVC083 27/25 Q1013 NOSIG
Vieuxfort (TLPL) 31.05.2020 00:00 UTC Zobrazit METAR
TLPL 310000Z 10019KT 9999 BKN025 28/23 Q1015 NOSIG
Vilnius (EYVI) 31.05.2020 03:50 UTC Zobrazit METAR
EYVI 310350Z 03016KT CAVOK 14/05 Q1012 NOSIG
Vitebsk (UMII) Zatím nenačteno  
Volgograd (URWW) Zatím nenačteno  
Voronezh (UUOO) Zatím nenačteno  
Reklama

Lunární kalendář

  • 05.06.Fáze měsíce uplnek
  • 13.06.Fáze měsíce posl_ctvrt
  • 21.06.Fáze měsíce nov
  • 28.06.Fáze měsíce prv_ctvrt



Reklama
Meteodomečky

Počasí na Váš email

Emaily jsou bez reklamy a bez spamu



Odhlásit newsletter

Reklama


Další české internetové stránky (nejen) o počasí najdete v katalogu TOPlist - weby o počasí nebo vyhledejte na internetu, co jste tu na 🌞 Slunečnu ⛅ zatím nenašli:

Reklama